createdAt,value
2022-11-29T00:02:14.200Z,84.62
2022-11-29T00:04:44.163Z,88.97
2022-11-29T00:07:14.044Z,88.97
2022-11-29T00:09:43.842Z,83.27
2022-11-29T00:12:13.646Z,80.10
2022-11-29T00:14:43.981Z,76.67
2022-11-29T00:17:13.943Z,75.23
2022-11-29T00:19:45.073Z,71.53
2022-11-29T00:22:14.797Z,89.43
2022-11-29T00:24:44.794Z,79.67
2022-11-29T00:27:14.662Z,85.63
2022-11-29T00:29:44.859Z,89.17
2022-11-29T00:32:14.669Z,89.73
2022-11-29T00:34:44.674Z,80.87
2022-11-29T00:37:14.618Z,91.17
2022-11-29T00:39:44.367Z,82.83
2022-11-29T00:42:15.483Z,89.22
2022-11-29T00:44:45.536Z,76.23
2022-11-29T00:47:15.457Z,80.87
2022-11-29T00:49:45.238Z,80.33
2022-11-29T00:52:14.823Z,72.03
2022-11-29T00:54:44.869Z,81.43
2022-11-29T00:57:14.907Z,79.90
2022-11-29T00:59:44.647Z,78.33
2022-11-29T01:02:14.296Z,66.53
2022-11-29T01:04:44.431Z,73.90
2022-11-29T01:07:14.750Z,73.47
2022-11-29T01:09:44.518Z,74.40
2022-11-29T01:12:14.400Z,77.03
2022-11-29T01:14:44.516Z,67.80
2022-11-29T01:17:14.426Z,79.03
2022-11-29T01:19:50.455Z,75.83
2022-11-29T01:22:15.368Z,82.67
2022-11-29T01:24:45.298Z,74.67
2022-11-29T01:27:15.575Z,74.37
2022-11-29T01:29:45.371Z,81.20
2022-11-29T01:32:15.218Z,75.47
2022-11-29T01:34:45.285Z,74.00
2022-11-29T01:37:15.485Z,76.57
2022-11-29T01:39:45.239Z,72.20
2022-11-29T01:42:15.132Z,75.07
2022-11-29T01:45:05.621Z,69.60
2022-11-29T01:47:36.867Z,72.75
2022-11-29T01:50:09.855Z,77.67
2022-11-29T01:52:40.025Z,74.57
2022-11-29T01:55:11.117Z,70.43
2022-11-29T01:57:42.571Z,67.57
2022-11-29T02:00:17.684Z,81.97
2022-11-29T02:03:01.826Z,87.05
2022-11-29T02:05:32.700Z,90.20
2022-11-29T02:08:02.992Z,91.90
2022-11-29T02:10:35.763Z,87.13
2022-11-29T02:13:29.384Z,84.07
2022-11-29T02:16:07.857Z,93.27
2022-11-29T02:18:48.857Z,91.27
2022-11-29T02:21:33.628Z,105.43
2022-11-29T02:24:07.306Z,98.40
2022-11-29T02:26:59.109Z,111.33
2022-11-29T02:29:52.620Z,105.37
2022-11-29T02:32:53.446Z,104.10
2022-11-29T02:35:31.850Z,99.77
2022-11-29T02:38:36.977Z,92.87
2022-11-29T02:41:30.349Z,101.37
2022-11-29T02:44:20.800Z,105.37
2022-11-29T02:47:28.166Z,100.47
2022-11-29T02:50:21.919Z,115.62
2022-11-29T02:53:16.812Z,100.50
2022-11-29T02:55:55.285Z,104.70
2022-11-29T02:58:27.794Z,101.53
2022-11-29T03:01:00.693Z,107.10
2022-11-29T03:03:36.636Z,111.42
2022-11-29T03:06:29.463Z,99.47
2022-11-29T03:09:02.261Z,110.00
2022-11-29T03:11:40.891Z,105.67
2022-11-29T03:14:24.937Z,108.72
2022-11-29T03:17:06.429Z,106.90
2022-11-29T03:19:57.195Z,124.27
2022-11-29T03:25:25.968Z,130.05
2022-11-29T03:28:02.093Z,120.53
2022-11-29T03:30:35.275Z,138.92
2022-11-29T03:33:08.060Z,137.87
2022-11-29T03:35:46.562Z,111.47
2022-11-29T03:38:35.608Z,129.85
2022-11-29T03:41:19.716Z,123.07
2022-11-29T03:43:55.626Z,126.15
2022-11-29T03:46:28.141Z,133.40
2022-11-29T03:49:06.890Z,139.03
2022-11-29T03:52:12.443Z,126.83
2022-11-29T03:55:03.177Z,128.07
2022-11-29T03:57:41.873Z,126.00
2022-11-29T04:00:15.044Z,128.24
2022-11-29T04:03:00.901Z,139.28
2022-11-29T04:05:58.813Z,109.47
2022-11-29T04:08:52.447Z,123.35
2022-11-29T04:11:30.391Z,131.00
2022-11-29T04:14:34.855Z,123.83
2022-11-29T04:17:22.374Z,100.03
2022-11-29T04:20:28.113Z,117.63
2022-11-29T04:23:22.868Z,130.07
2022-11-29T04:26:22.135Z,136.43
2022-11-29T04:29:06.571Z,147.83
2022-11-29T04:31:53.991Z,153.67
2022-11-29T04:34:44.990Z,150.10
2022-11-29T04:37:23.896Z,138.10
2022-11-29T04:40:18.690Z,135.90
2022-11-29T04:43:18.475Z,129.35
2022-11-29T04:45:50.956Z,129.70
2022-11-29T04:48:29.309Z,146.13
2022-11-29T04:51:10.651Z,138.60
2022-11-29T04:54:14.991Z,134.23
2022-11-29T04:56:50.393Z,143.55
2022-11-29T04:59:28.730Z,147.70
2022-11-29T05:02:04.282Z,142.67
2022-11-29T05:04:37.043Z,142.33
2022-11-29T05:07:42.868Z,145.43
2022-11-29T05:10:42.058Z,130.05
2022-11-29T05:13:31.032Z,144.90
2022-11-29T05:16:03.883Z,140.37
2022-11-29T05:18:59.079Z,141.43
2022-11-29T05:21:46.587Z,126.80
2022-11-29T05:27:18.533Z,139.30
2022-11-29T05:29:51.616Z,131.78
2022-11-29T05:32:32.952Z,134.05
2022-11-29T05:35:10.732Z,125.05
2022-11-29T05:37:43.901Z,105.03
2022-11-29T05:40:34.522Z,105.14
2022-11-29T05:43:09.876Z,108.53
2022-11-29T05:45:57.675Z,93.45
2022-11-29T05:49:01.659Z,88.50
2022-11-29T05:51:43.322Z,107.43
2022-11-29T05:54:39.847Z,109.42
2022-11-29T05:57:29.036Z,94.92
2022-11-29T06:00:01.489Z,100.93
2022-11-29T06:02:56.798Z,109.70
2022-11-29T06:05:32.315Z,96.37
2022-11-29T06:08:24.590Z,99.57
2022-11-29T06:13:51.776Z,98.70
2022-11-29T06:16:58.460Z,101.87
2022-11-29T06:19:39.423Z,100.57
2022-11-29T06:22:25.787Z,98.63
2022-11-29T06:25:17.322Z,105.92
2022-11-29T06:28:05.167Z,87.50
2022-11-29T06:30:38.237Z,95.80
2022-11-29T06:33:17.045Z,91.53
2022-11-29T06:36:07.516Z,90.90
2022-11-29T06:38:37.385Z,97.47
2022-11-29T06:41:07.849Z,96.33
2022-11-29T06:43:37.880Z,96.97
2022-11-29T06:46:27.695Z,93.20
2022-11-29T06:49:15.035Z,94.70
2022-11-29T06:52:08.833Z,90.17
2022-11-29T06:54:56.238Z,80.77
2022-11-29T06:57:49.419Z,87.13
2022-11-29T07:00:25.595Z,91.20
2022-11-29T07:03:23.986Z,97.13
2022-11-29T07:05:53.957Z,94.37
2022-11-29T07:08:25.380Z,83.60
2022-11-29T07:10:56.031Z,96.97
2022-11-29T07:13:26.012Z,80.80
2022-11-29T07:16:01.306Z,85.00
2022-11-29T07:19:00.871Z,74.87
2022-11-29T07:21:42.264Z,77.67
2022-11-29T07:24:45.762Z,94.56
2022-11-29T07:27:38.031Z,82.43
2022-11-29T07:30:14.819Z,81.85
2022-11-29T07:33:00.364Z,87.92
2022-11-29T07:35:39.129Z,90.17
2022-11-29T07:38:26.609Z,83.60
2022-11-29T07:41:20.246Z,74.25
2022-11-29T07:44:07.907Z,87.17
2022-11-29T07:46:37.712Z,78.27
2022-11-29T07:49:09.025Z,81.20
2022-11-29T07:51:39.134Z,82.97
2022-11-29T07:54:13.297Z,76.73
2022-11-29T07:56:42.753Z,74.65
2022-11-29T07:59:12.888Z,68.20
2022-11-29T08:01:43.120Z,72.80
2022-11-29T08:04:13.779Z,77.50
2022-11-29T08:06:43.257Z,71.00
2022-11-29T08:09:13.303Z,70.70
2022-11-29T08:11:43.053Z,72.67
2022-11-29T08:14:12.787Z,69.07
2022-11-29T08:16:42.598Z,61.90
2022-11-29T08:19:12.388Z,66.33
2022-11-29T08:21:47.711Z,62.27
2022-11-29T08:24:17.519Z,73.52
2022-11-29T08:26:47.405Z,61.03
2022-11-29T08:29:17.441Z,59.77
2022-11-29T08:31:47.515Z,60.07
2022-11-29T08:34:17.001Z,71.27
2022-11-29T08:36:46.798Z,61.63
2022-11-29T08:42:05.537Z,66.30
2022-11-29T08:44:35.278Z,70.63
2022-11-29T08:47:22.530Z,60.87
2022-11-29T08:50:04.410Z,68.20
2022-11-29T08:52:54.996Z,66.93
2022-11-29T08:55:27.494Z,64.25
2022-11-29T08:58:03.188Z,63.30
2022-11-29T09:00:33.694Z,66.27
2022-11-29T09:03:22.376Z,60.88
2022-11-29T09:05:52.537Z,62.47
2022-11-29T09:08:22.743Z,67.20
2022-11-29T09:10:53.159Z,55.00
2022-11-29T09:13:22.964Z,60.00
2022-11-29T09:15:52.704Z,59.93
2022-11-29T09:18:22.654Z,63.52
2022-11-29T09:20:52.699Z,65.35
2022-11-29T09:23:22.759Z,58.83
2022-11-29T09:25:52.510Z,59.80
2022-11-29T09:28:22.247Z,64.32
2022-11-29T09:30:52.016Z,60.63
2022-11-29T09:33:22.090Z,59.38
2022-11-29T09:35:52.158Z,56.80
2022-11-29T09:38:21.742Z,61.93
2022-11-29T09:40:59.751Z,58.30
2022-11-29T09:43:41.365Z,55.10
2022-11-29T09:46:18.234Z,61.44
2022-11-29T09:48:59.724Z,54.03
2022-11-29T09:51:50.325Z,55.53
2022-11-29T09:54:37.918Z,43.77
2022-11-29T09:57:11.027Z,48.98
2022-11-29T09:59:46.761Z,50.10
2022-11-29T10:02:34.269Z,60.95
2022-11-29T10:05:29.929Z,50.98
2022-11-29T10:08:11.189Z,49.13
2022-11-29T10:10:46.228Z,52.93
2022-11-29T10:13:27.505Z,47.85
2022-11-29T10:16:09.322Z,53.30
2022-11-29T10:18:44.866Z,53.17
2022-11-29T10:21:17.553Z,49.63
2022-11-29T10:23:53.123Z,56.23
2022-11-29T10:26:24.391Z,58.17
2022-11-29T10:28:55.850Z,49.63
2022-11-29T10:31:28.842Z,55.23
2022-11-29T10:34:01.508Z,48.80
2022-11-29T10:36:37.134Z,53.45
2022-11-29T10:41:39.421Z,54.50
2022-11-29T10:44:13.767Z,55.53
2022-11-29T10:46:43.698Z,51.80
2022-11-29T10:49:16.546Z,57.20
2022-11-29T10:51:47.636Z,58.67
2022-11-29T10:54:35.532Z,53.40
2022-11-29T10:57:08.325Z,52.13
2022-11-29T10:59:38.442Z,49.95
2022-11-29T11:02:20.077Z,48.87
2022-11-29T11:04:50.257Z,54.45
2022-11-29T11:07:26.135Z,53.00
2022-11-29T11:12:30.240Z,51.53
2022-11-29T11:15:15.538Z,54.37
2022-11-29T11:18:00.502Z,56.42
2022-11-29T11:20:32.472Z,61.23
2022-11-29T11:23:05.487Z,56.75
2022-11-29T11:25:41.628Z,58.95
2022-11-29T11:28:16.350Z,53.13
2022-11-29T11:30:51.405Z,59.73
2022-11-29T11:33:24.844Z,57.50
2022-11-29T11:36:23.438Z,53.23
2022-11-29T11:39:02.335Z,55.58
2022-11-29T11:41:52.475Z,59.50
2022-11-29T11:44:58.328Z,54.40
2022-11-29T11:47:02.704Z,52.57
2022-11-29T11:49:37.958Z,56.00
2022-11-29T11:52:12.415Z,55.38
2022-11-29T11:54:45.756Z,53.60
2022-11-29T11:57:23.874Z,59.63
2022-11-29T11:59:56.264Z,53.87
2022-11-29T12:02:39.939Z,57.20
2022-11-29T12:05:15.543Z,57.00
2022-11-29T12:08:08.209Z,52.17
2022-11-29T12:10:25.737Z,51.05
2022-11-29T12:12:57.504Z,62.80
2022-11-29T12:15:33.213Z,55.60
2022-11-29T12:18:14.171Z,48.93
2022-11-29T12:20:58.271Z,44.77
2022-11-29T12:23:33.692Z,55.80
2022-11-29T12:26:10.652Z,51.60
2022-11-29T12:28:43.684Z,57.63
2022-11-29T12:31:19.351Z,44.97
2022-11-29T12:34:00.438Z,62.83
2022-11-29T12:36:45.176Z,59.33
2022-11-29T12:39:44.586Z,56.63
2022-11-29T12:42:42.840Z,47.90
2022-11-29T12:45:27.513Z,50.84
2022-11-29T12:48:09.233Z,49.63
2022-11-29T12:50:59.644Z,53.63
2022-11-29T12:53:38.027Z,54.93
2022-11-29T12:56:25.963Z,48.95
2022-11-29T12:59:21.055Z,49.70
2022-11-29T13:02:10.314Z,53.13
2022-11-29T13:04:59.622Z,47.73
2022-11-29T13:07:43.642Z,54.27
2022-11-29T13:10:24.330Z,53.05
2022-11-29T13:13:05.971Z,56.50
2022-11-29T13:15:56.562Z,57.30
2022-11-29T13:18:37.904Z,47.35
2022-11-29T13:21:16.368Z,50.57
2022-11-29T13:24:10.104Z,45.17
2022-11-29T13:26:42.717Z,52.57
2022-11-29T13:29:19.573Z,49.27
2022-11-29T13:31:49.881Z,41.30
2022-11-29T13:34:25.236Z,49.88
2022-11-29T13:37:10.107Z,50.60
2022-11-29T13:39:42.638Z,42.40
2022-11-29T13:42:15.423Z,48.77
2022-11-29T13:45:07.474Z,48.25
2022-11-29T13:47:43.103Z,40.57
2022-11-29T13:50:43.609Z,50.13
2022-11-29T13:53:25.124Z,47.90
2022-11-29T13:56:03.076Z,37.15
2022-11-29T13:58:40.363Z,41.37
2022-11-29T14:01:13.551Z,50.43
2022-11-29T14:03:46.281Z,46.58
2022-11-29T14:06:20.886Z,42.27
2022-11-29T14:09:18.395Z,45.45
2022-11-29T14:11:39.488Z,46.53
2022-11-29T14:14:18.223Z,43.17
2022-11-29T14:16:53.859Z,45.07
2022-11-29T14:19:35.463Z,57.27
2022-11-29T14:22:19.077Z,42.83
2022-11-29T14:25:00.899Z,48.33
2022-11-29T14:27:33.740Z,50.20
2022-11-29T14:30:04.028Z,48.27
2022-11-29T14:32:46.508Z,47.03
2022-11-29T14:35:24.510Z,51.15
2022-11-29T14:38:06.126Z,47.63
2022-11-29T14:40:44.514Z,40.33
2022-11-29T14:43:23.407Z,51.15
2022-11-29T14:46:14.392Z,44.63
2022-11-29T14:48:47.304Z,48.07
2022-11-29T14:51:19.791Z,40.45
2022-11-29T14:53:55.371Z,44.77
2022-11-29T14:56:38.070Z,46.10
2022-11-29T14:59:43.634Z,45.57
2022-11-29T15:02:31.685Z,53.13
2022-11-29T15:05:19.958Z,53.27
2022-11-29T15:07:55.452Z,48.07
2022-11-29T15:10:28.337Z,51.88
2022-11-29T15:13:01.290Z,50.23
2022-11-29T15:15:37.196Z,59.75
2022-11-29T15:18:19.302Z,61.90
2022-11-29T15:21:13.120Z,55.43
2022-11-29T15:23:43.975Z,55.10
2022-11-29T15:26:21.540Z,57.43
2022-11-29T15:28:51.278Z,51.47
2022-11-29T15:31:22.576Z,56.10
2022-11-29T15:33:52.305Z,61.60
2022-11-29T15:36:24.990Z,54.30
2022-11-29T15:38:58.759Z,62.33
2022-11-29T15:41:30.937Z,64.37
2022-11-29T15:44:03.498Z,61.60
2022-11-29T15:46:35.295Z,65.75
2022-11-29T15:49:18.757Z,63.30
2022-11-29T15:51:51.553Z,64.27
2022-11-29T15:54:36.407Z,61.80
2022-11-29T15:57:17.609Z,61.07
2022-11-29T15:59:53.108Z,58.40
2022-11-29T16:02:29.111Z,56.07
2022-11-29T16:05:13.616Z,62.53
2022-11-29T16:07:45.121Z,59.50
2022-11-29T16:10:19.619Z,61.10
2022-11-29T16:13:00.693Z,66.73
2022-11-29T16:15:33.479Z,57.20
2022-11-29T16:18:12.307Z,57.55
2022-11-29T16:20:42.326Z,62.60
2022-11-29T16:23:14.764Z,57.37
2022-11-29T16:26:03.966Z,65.43
2022-11-29T16:28:36.702Z,65.87
2022-11-29T16:31:06.883Z,68.05
2022-11-29T16:33:38.647Z,73.35
2022-11-29T16:36:19.997Z,74.83
2022-11-29T16:38:52.598Z,77.55
2022-11-29T16:41:34.323Z,71.10
2022-11-29T16:44:05.979Z,72.22
2022-11-29T16:46:40.351Z,76.33
2022-11-29T16:49:33.677Z,76.97
2022-11-29T16:52:05.042Z,80.60
2022-11-29T16:54:34.863Z,85.73
2022-11-29T16:57:07.197Z,84.20
2022-11-29T16:59:38.507Z,87.47
2022-11-29T17:02:13.909Z,74.37
2022-11-29T17:04:44.486Z,79.70
2022-11-29T17:07:23.432Z,80.13
2022-11-29T17:09:53.436Z,74.87
2022-11-29T17:12:23.180Z,82.73
2022-11-29T17:14:53.236Z,73.45
2022-11-29T17:17:22.989Z,73.93
2022-11-29T17:19:53.010Z,81.70
2022-11-29T17:22:22.758Z,74.30
2022-11-29T17:24:53.419Z,81.30
2022-11-29T17:27:23.804Z,73.47
2022-11-29T17:29:53.837Z,76.07
2022-11-29T17:32:26.790Z,84.67
2022-11-29T17:34:55.378Z,73.02
2022-11-29T17:37:25.549Z,81.50
2022-11-29T17:39:56.560Z,83.50
2022-11-29T17:42:26.554Z,73.42
2022-11-29T17:44:56.670Z,79.92
2022-11-29T17:47:26.103Z,72.53
2022-11-29T17:49:56.237Z,69.75
2022-11-29T17:52:25.963Z,83.33
2022-11-29T17:54:55.988Z,77.45
2022-11-29T17:57:25.727Z,87.70
2022-11-29T17:59:55.854Z,74.07
2022-11-29T18:02:25.612Z,74.80
2022-11-29T18:04:55.692Z,78.90
2022-11-29T18:07:25.542Z,74.10
2022-11-29T18:09:55.545Z,76.05
2022-11-29T18:12:25.581Z,80.22
2022-11-29T18:14:55.337Z,75.67
2022-11-29T18:17:25.084Z,74.00
2022-11-29T18:19:54.836Z,73.17
2022-11-29T18:22:24.605Z,76.37
2022-11-29T18:25:05.402Z,77.92
2022-11-29T18:27:26.064Z,76.20
2022-11-29T18:29:55.808Z,70.17
2022-11-29T18:32:25.617Z,67.23
2022-11-29T18:34:55.737Z,84.90
2022-11-29T18:37:54.455Z,71.27
2022-11-29T18:39:57.071Z,88.43
2022-11-29T18:42:26.811Z,85.95
2022-11-29T18:44:58.806Z,75.77
2022-11-29T18:47:29.599Z,74.43
2022-11-29T18:49:59.671Z,93.87
2022-11-29T18:52:30.055Z,84.27
2022-11-29T18:54:59.794Z,83.10
2022-11-29T18:57:29.564Z,98.17
2022-11-29T18:59:59.312Z,90.87
2022-11-29T19:02:28.819Z,90.00
2022-11-29T19:04:58.607Z,75.27
2022-11-29T19:07:29.269Z,81.10
2022-11-29T19:09:59.117Z,86.90
2022-11-29T19:12:29.124Z,85.12
2022-11-29T19:14:58.616Z,79.65
2022-11-29T19:17:29.424Z,83.50
2022-11-29T19:19:59.368Z,83.33
2022-11-29T19:22:29.884Z,81.63
2022-11-29T19:25:00.597Z,90.12
2022-11-29T19:27:30.319Z,74.23
2022-11-29T19:30:00.086Z,93.53
2022-11-29T19:32:29.904Z,75.47
2022-11-29T19:34:59.918Z,78.28
2022-11-29T19:37:29.659Z,86.03
2022-11-29T19:39:59.386Z,73.23
2022-11-29T19:42:28.847Z,94.37
2022-11-29T19:45:16.641Z,76.97
2022-11-29T19:47:30.038Z,74.50
2022-11-29T19:50:02.653Z,72.90
2022-11-29T19:52:31.360Z,65.30
2022-11-29T19:55:01.115Z,71.43
2022-11-29T19:57:30.844Z,68.77
2022-11-29T20:00:00.700Z,77.90
2022-11-29T20:02:32.307Z,71.33
2022-11-29T20:05:02.201Z,76.43
2022-11-29T20:07:32.020Z,80.00
2022-11-29T20:10:01.755Z,77.43
2022-11-29T20:12:32.714Z,78.17
2022-11-29T20:15:02.468Z,79.40
2022-11-29T20:17:32.589Z,92.40
2022-11-29T20:20:02.439Z,76.90
2022-11-29T20:22:32.253Z,89.90
2022-11-29T20:25:01.991Z,79.67
2022-11-29T20:27:32.027Z,83.03
2022-11-29T20:30:01.779Z,78.23
2022-11-29T20:32:31.317Z,86.22
2022-11-29T20:35:02.402Z,75.83
2022-11-29T20:37:35.933Z,69.77
2022-11-29T20:40:08.653Z,70.10
2022-11-29T20:42:41.985Z,72.37
2022-11-29T20:45:14.344Z,67.55
2022-11-29T20:47:50.323Z,66.50
2022-11-29T20:50:23.796Z,71.50
2022-11-29T20:53:02.721Z,76.73
2022-11-29T20:55:32.596Z,77.80
2022-11-29T20:58:02.414Z,63.10
2022-11-29T21:00:32.155Z,64.50
2022-11-29T21:03:01.988Z,72.03
2022-11-29T21:05:31.738Z,71.63
2022-11-29T21:08:02.334Z,74.60
2022-11-29T21:10:32.149Z,73.92
2022-11-29T21:13:02.239Z,71.23
2022-11-29T21:15:32.327Z,71.70
2022-11-29T21:18:02.317Z,77.33
2022-11-29T21:20:32.371Z,83.07
2022-11-29T21:23:05.132Z,77.10
2022-11-29T21:25:46.506Z,70.50
2022-11-29T21:28:17.706Z,62.97
2022-11-29T21:30:47.591Z,69.60
2022-11-29T21:33:17.589Z,69.87
2022-11-29T21:35:48.055Z,72.77
2022-11-29T21:38:21.134Z,67.15
2022-11-29T21:40:50.889Z,64.63
2022-11-29T21:43:22.799Z,70.00
2022-11-29T21:45:52.074Z,67.37
2022-11-29T21:48:37.712Z,55.05
2022-11-29T21:51:09.088Z,71.30
2022-11-29T21:53:40.282Z,73.10
2022-11-29T21:56:12.091Z,56.58
2022-11-29T21:58:42.163Z,54.80
2022-11-29T22:01:14.899Z,53.25
2022-11-29T22:03:45.034Z,54.70
2022-11-29T22:06:23.209Z,46.98
2022-11-29T22:08:52.948Z,41.07
2022-11-29T22:11:34.707Z,52.13
2022-11-29T22:14:15.000Z,44.27
2022-11-29T22:16:47.836Z,39.87
2022-11-29T22:19:29.435Z,46.07
2022-11-29T22:22:04.600Z,43.17
2022-11-29T22:24:36.565Z,45.37
2022-11-29T22:27:06.557Z,38.63
2022-11-29T22:29:36.372Z,42.27
2022-11-29T22:32:06.753Z,40.80
2022-11-29T22:34:36.483Z,41.90
2022-11-29T22:37:06.237Z,39.43
2022-11-29T22:39:35.720Z,41.35
2022-11-29T22:42:06.656Z,39.83
2022-11-29T22:44:36.412Z,40.60
2022-11-29T22:47:06.212Z,42.13
2022-11-29T22:49:35.772Z,45.05
2022-11-29T22:52:06.733Z,43.13
2022-11-29T22:54:36.460Z,39.87
2022-11-29T22:57:06.234Z,39.80
2022-11-29T22:59:36.332Z,39.83
2022-11-29T23:02:07.119Z,37.95
2022-11-29T23:04:37.181Z,40.10
2022-11-29T23:07:07.230Z,42.25
2022-11-29T23:09:36.670Z,36.20
2022-11-29T23:12:08.086Z,34.23
2022-11-29T23:14:37.836Z,39.00
2022-11-29T23:17:07.573Z,39.17
2022-11-29T23:19:37.306Z,35.27
2022-11-29T23:22:08.484Z,40.84
2022-11-29T23:24:39.931Z,36.37
2022-11-29T23:27:09.748Z,28.93
2022-11-29T23:29:39.467Z,31.87
2022-11-29T23:32:09.587Z,31.53
2022-11-29T23:34:39.367Z,33.17
2022-11-29T23:37:09.630Z,33.60
2022-11-29T23:39:39.362Z,35.17
2022-11-29T23:42:09.120Z,29.33
2022-11-29T23:44:38.882Z,36.33
2022-11-29T23:47:08.616Z,31.10
2022-11-29T23:49:39.743Z,31.03
2022-11-29T23:52:10.493Z,37.95
2022-11-29T23:54:40.234Z,29.27
2022-11-29T23:57:09.982Z,35.37
2022-11-29T23:59:39.725Z,31.07
